sensor_id;sensor_type;location;lat;lon;timestamp;temperature;humidity
2112;DHT22;1062;52.538;13.400;2024-01-30T00:01:35;4.10;99.90
2112;DHT22;1062;52.538;13.400;2024-01-30T00:04:02;4.10;99.90
2112;DHT22;1062;52.538;13.400;2024-01-30T00:06:27;4.00;99.90
2112;DHT22;1062;52.538;13.400;2024-01-30T00:08:53;4.00;99.90
2112;DHT22;1062;52.538;13.400;2024-01-30T00:11:19;4.00;99.90
2112;DHT22;1062;52.538;13.400;2024-01-30T00:13:44;4.00;99.90
2112;DHT22;1062;52.538;13.400;2024-01-30T00:16:20;3.90;99.90
2112;DHT22;1062;52.538;13.400;2024-01-30T00:18:46;3.90;99.90
2112;DHT22;1062;52.538;13.400;2024-01-30T00:21:12;3.90;99.90
2112;DHT22;1062;52.538;13.400;2024-01-30T00:23:37;3.90;99.90
2112;DHT22;1062;52.538;13.400;2024-01-30T00:26:03;3.90;99.90
2112;DHT22;1062;52.538;13.400;2024-01-30T00:28:28;3.90;99.90
2112;DHT22;1062;52.538;13.400;2024-01-30T00:30:54;3.80;99.90
2112;DHT22;1062;52.538;13.400;2024-01-30T00:33:19;3.80;99.90
2112;DHT22;1062;52.538;13.400;2024-01-30T00:35:45;3.80;99.90
2112;DHT22;1062;52.538;13.400;2024-01-30T00:38:10;3.80;99.90
2112;DHT22;1062;52.538;13.400;2024-01-30T00:40:36;3.80;99.90
2112;DHT22;1062;52.538;13.400;2024-01-30T00:43:02;3.80;99.90
2112;DHT22;1062;52.538;13.400;2024-01-30T00:45:27;3.70;99.90
2112;DHT22;1062;52.538;13.400;2024-01-30T00:47:53;3.70;99.90
2112;DHT22;1062;52.538;13.400;2024-01-30T00:50:18;3.70;99.90
2112;DHT22;1062;52.538;13.400;2024-01-30T00:52:44;3.70;99.90
2112;DHT22;1062;52.538;13.400;2024-01-30T00:55:10;3.70;99.90
2112;DHT22;1062;52.538;13.400;2024-01-30T00:57:36;3.60;99.90
2112;DHT22;1062;52.538;13.400;2024-01-30T01:00:03;3.60;99.90
2112;DHT22;1062;52.538;13.400;2024-01-30T01:02:28;3.60;99.90
2112;DHT22;1062;52.538;13.400;2024-01-30T01:04:54;3.60;99.90
2112;DHT22;1062;52.538;13.400;2024-01-30T01:07:20;3.60;99.90
2112;DHT22;1062;52.538;13.400;2024-01-30T01:09:45;3.50;99.90
2112;DHT22;1062;52.538;13.400;2024-01-30T01:12:11;3.50;99.90
2112;DHT22;1062;52.538;13.400;2024-01-30T01:14:36;3.50;99.90
2112;DHT22;1062;52.538;13.400;2024-01-30T01:17:02;3.50;99.90
2112;DHT22;1062;52.538;13.400;2024-01-30T01:19:28;3.50;99.90
2112;DHT22;1062;52.538;13.400;2024-01-30T01:21:53;3.50;99.90
2112;DHT22;1062;52.538;13.400;2024-01-30T01:24:19;3.50;99.90
2112;DHT22;1062;52.538;13.400;2024-01-30T01:26:44;3.50;99.90
2112;DHT22;1062;52.538;13.400;2024-01-30T01:29:10;3.50;99.90
2112;DHT22;1062;52.538;13.400;2024-01-30T01:31:38;3.50;99.90
2112;DHT22;1062;52.538;13.400;2024-01-30T01:34:11;3.40;99.90
2112;DHT22;1062;52.538;13.400;2024-01-30T01:36:37;3.40;99.90
2112;DHT22;1062;52.538;13.400;2024-01-30T01:39:03;3.40;99.90
2112;DHT22;1062;52.538;13.400;2024-01-30T01:41:32;3.40;99.90
2112;DHT22;1062;52.538;13.400;2024-01-30T01:43:59;3.50;99.90
2112;DHT22;1062;52.538;13.400;2024-01-30T01:46:26;3.50;99.90
2112;DHT22;1062;52.538;13.400;2024-01-30T01:48:53;3.40;99.90
2112;DHT22;1062;52.538;13.400;2024-01-30T01:51:19;3.40;99.90
2112;DHT22;1062;52.538;13.400;2024-01-30T01:53:45;3.40;99.90
2112;DHT22;1062;52.538;13.400;2024-01-30T01:56:11;3.40;99.90
2112;DHT22;1062;52.538;13.400;2024-01-30T01:58:37;3.40;99.90
2112;DHT22;1062;52.538;13.400;2024-01-30T02:01:04;3.40;99.90
2112;DHT22;1062;52.538;13.400;2024-01-30T02:03:30;3.40;99.90
2112;DHT22;1062;52.538;13.400;2024-01-30T02:05:56;3.40;99.90
2112;DHT22;1062;52.538;13.400;2024-01-30T02:08:25;3.30;99.90
2112;DHT22;1062;52.538;13.400;2024-01-30T02:10:51;3.30;99.90
2112;DHT22;1062;52.538;13.400;2024-01-30T02:13:16;3.30;99.90
2112;DHT22;1062;52.538;13.400;2024-01-30T02:15:42;3.30;99.90
2112;DHT22;1062;52.538;13.400;2024-01-30T02:18:08;3.30;99.90
2112;DHT22;1062;52.538;13.400;2024-01-30T02:20:35;3.30;99.90
2112;DHT22;1062;52.538;13.400;2024-01-30T02:23:01;3.30;99.90
2112;DHT22;1062;52.538;13.400;2024-01-30T02:25:33;3.30;99.90
2112;DHT22;1062;52.538;13.400;2024-01-30T02:27:59;3.30;99.90
2112;DHT22;1062;52.538;13.400;2024-01-30T02:30:25;3.30;99.90
2112;DHT22;1062;52.538;13.400;2024-01-30T02:32:50;3.30;99.90
2112;DHT22;1062;52.538;13.400;2024-01-30T02:35:16;3.30;99.90
2112;DHT22;1062;52.538;13.400;2024-01-30T02:37:41;3.30;99.90
2112;DHT22;1062;52.538;13.400;2024-01-30T02:40:07;3.30;99.90
2112;DHT22;1062;52.538;13.400;2024-01-30T02:42:33;3.30;99.90
2112;DHT22;1062;52.538;13.400;2024-01-30T02:44:58;3.30;99.90
2112;DHT22;1062;52.538;13.400;2024-01-30T02:47:24;3.30;99.90
2112;DHT22;1062;52.538;13.400;2024-01-30T02:49:50;3.30;99.90
2112;DHT22;1062;52.538;13.400;2024-01-30T02:52:16;3.30;99.90
2112;DHT22;1062;52.538;13.400;2024-01-30T02:54:41;3.20;99.90
2112;DHT22;1062;52.538;13.400;2024-01-30T02:57:07;3.30;99.90
2112;DHT22;1062;52.538;13.400;2024-01-30T02:59:32;3.30;99.90
2112;DHT22;1062;52.538;13.400;2024-01-30T03:02:01;3.20;99.90
2112;DHT22;1062;52.538;13.400;2024-01-30T03:04:26;3.20;99.90
2112;DHT22;1062;52.538;13.400;2024-01-30T03:06:52;3.20;99.90
2112;DHT22;1062;52.538;13.400;2024-01-30T03:09:18;3.20;99.90
2112;DHT22;1062;52.538;13.400;2024-01-30T03:11:44;3.10;99.90
2112;DHT22;1062;52.538;13.400;2024-01-30T03:14:09;3.20;99.90
2112;DHT22;1062;52.538;13.400;2024-01-30T03:16:37;3.10;99.90
2112;DHT22;1062;52.538;13.400;2024-01-30T03:19:04;3.10;99.90
2112;DHT22;1062;52.538;13.400;2024-01-30T03:21:30;3.00;99.90
2112;DHT22;1062;52.538;13.400;2024-01-30T03:23:56;3.00;99.90
2112;DHT22;1062;52.538;13.400;2024-01-30T03:26:21;3.00;99.90
2112;DHT22;1062;52.538;13.400;2024-01-30T03:28:47;3.00;99.90
2112;DHT22;1062;52.538;13.400;2024-01-30T03:31:15;3.00;99.90
2112;DHT22;1062;52.538;13.400;2024-01-30T03:33:40;3.00;99.90
2112;DHT22;1062;52.538;13.400;2024-01-30T03:36:06;3.00;99.90
2112;DHT22;1062;52.538;13.400;2024-01-30T03:38:32;3.00;99.90
2112;DHT22;1062;52.538;13.400;2024-01-30T03:41:00;3.00;99.90
2112;DHT22;1062;52.538;13.400;2024-01-30T03:43:26;2.90;99.90
2112;DHT22;1062;52.538;13.400;2024-01-30T03:45:52;2.90;99.90
2112;DHT22;1062;52.538;13.400;2024-01-30T03:48:18;2.90;99.90
2112;DHT22;1062;52.538;13.400;2024-01-30T03:50:44;2.90;99.90
2112;DHT22;1062;52.538;13.400;2024-01-30T03:53:09;2.90;99.90
2112;DHT22;1062;52.538;13.400;2024-01-30T03:55:35;2.90;99.90
2112;DHT22;1062;52.538;13.400;2024-01-30T03:58:01;2.90;99.90
2112;DHT22;1062;52.538;13.400;2024-01-30T04:00:26;2.90;99.90
2112;DHT22;1062;52.538;13.400;2024-01-30T04:02:53;2.90;99.90
2112;DHT22;1062;52.538;13.400;2024-01-30T04:05:18;2.90;99.90
2112;DHT22;1062;52.538;13.400;2024-01-30T04:07:44;2.90;99.90
2112;DHT22;1062;52.538;13.400;2024-01-30T04:10:10;2.90;99.90
2112;DHT22;1062;52.538;13.400;2024-01-30T04:12:36;2.90;99.90
2112;DHT22;1062;52.538;13.400;2024-01-30T04:15:02;2.80;99.90
2112;DHT22;1062;52.538;13.400;2024-01-30T04:17:28;2.80;99.90
2112;DHT22;1062;52.538;13.400;2024-01-30T04:19:54;2.80;99.90
2112;DHT22;1062;52.538;13.400;2024-01-30T04:22:20;2.80;99.90
2112;DHT22;1062;52.538;13.400;2024-01-30T04:24:45;2.90;99.90
2112;DHT22;1062;52.538;13.400;2024-01-30T04:27:11;2.80;99.90
2112;DHT22;1062;52.538;13.400;2024-01-30T04:29:37;2.80;99.90
2112;DHT22;1062;52.538;13.400;2024-01-30T04:32:02;2.80;99.90
2112;DHT22;1062;52.538;13.400;2024-01-30T04:34:28;2.90;99.90
2112;DHT22;1062;52.538;13.400;2024-01-30T04:36:54;2.90;99.90
2112;DHT22;1062;52.538;13.400;2024-01-30T04:39:20;2.90;99.90
2112;DHT22;1062;52.538;13.400;2024-01-30T04:41:45;2.90;99.90
2112;DHT22;1062;52.538;13.400;2024-01-30T04:44:11;2.90;99.90
2112;DHT22;1062;52.538;13.400;2024-01-30T04:46:36;2.90;99.90
2112;DHT22;1062;52.538;13.400;2024-01-30T04:49:02;2.90;99.90
2112;DHT22;1062;52.538;13.400;2024-01-30T04:51:29;2.90;99.90
2112;DHT22;1062;52.538;13.400;2024-01-30T04:53:55;2.90;99.90
2112;DHT22;1062;52.538;13.400;2024-01-30T04:56:20;2.90;99.90
2112;DHT22;1062;52.538;13.400;2024-01-30T04:58:46;2.90;99.90
2112;DHT22;1062;52.538;13.400;2024-01-30T05:01:16;2.90;99.90
2112;DHT22;1062;52.538;13.400;2024-01-30T05:03:41;2.90;99.90
2112;DHT22;1062;52.538;13.400;2024-01-30T05:06:07;3.00;99.90
2112;DHT22;1062;52.538;13.400;2024-01-30T05:08:33;3.00;99.90
2112;DHT22;1062;52.538;13.400;2024-01-30T05:11:02;3.00;99.90
2112;DHT22;1062;52.538;13.400;2024-01-30T05:13:30;3.00;99.90
2112;DHT22;1062;52.538;13.400;2024-01-30T05:15:55;2.90;99.90
2112;DHT22;1062;52.538;13.400;2024-01-30T05:18:21;2.90;99.90
2112;DHT22;1062;52.538;13.400;2024-01-30T05:20:46;2.90;99.90
2112;DHT22;1062;52.538;13.400;2024-01-30T05:23:12;3.00;99.90
2112;DHT22;1062;52.538;13.400;2024-01-30T05:25:38;2.90;99.90
2112;DHT22;1062;52.538;13.400;2024-01-30T05:28:03;2.90;99.90
2112;DHT22;1062;52.538;13.400;2024-01-30T05:30:29;2.90;99.90
2112;DHT22;1062;52.538;13.400;2024-01-30T05:32:54;2.90;99.90
2112;DHT22;1062;52.538;13.400;2024-01-30T05:35:20;2.90;99.90
2112;DHT22;1062;52.538;13.400;2024-01-30T05:37:48;2.90;99.90
2112;DHT22;1062;52.538;13.400;2024-01-30T05:40:14;2.90;99.90
2112;DHT22;1062;52.538;13.400;2024-01-30T05:42:40;2.90;99.90
2112;DHT22;1062;52.538;13.400;2024-01-30T05:45:06;2.90;99.90
2112;DHT22;1062;52.538;13.400;2024-01-30T05:47:31;2.90;99.90
2112;DHT22;1062;52.538;13.400;2024-01-30T05:49:57;2.90;99.90
2112;DHT22;1062;52.538;13.400;2024-01-30T05:52:22;2.90;99.90
2112;DHT22;1062;52.538;13.400;2024-01-30T05:54:48;2.90;99.90
2112;DHT22;1062;52.538;13.400;2024-01-30T05:57:14;2.90;99.90
2112;DHT22;1062;52.538;13.400;2024-01-30T05:59:39;2.90;99.90
2112;DHT22;1062;52.538;13.400;2024-01-30T06:02:05;2.90;99.90
2112;DHT22;1062;52.538;13.400;2024-01-30T06:04:30;2.90;99.90
2112;DHT22;1062;52.538;13.400;2024-01-30T06:06:56;2.90;99.90
2112;DHT22;1062;52.538;13.400;2024-01-30T06:09:21;2.90;99.90
2112;DHT22;1062;52.538;13.400;2024-01-30T06:11:47;2.90;99.90
2112;DHT22;1062;52.538;13.400;2024-01-30T06:14:12;2.90;99.90
2112;DHT22;1062;52.538;13.400;2024-01-30T06:16:38;2.90;99.90
2112;DHT22;1062;52.538;13.400;2024-01-30T06:19:04;2.80;99.90
2112;DHT22;1062;52.538;13.400;2024-01-30T06:21:29;2.90;99.90
2112;DHT22;1062;52.538;13.400;2024-01-30T06:23:56;2.90;99.90
2112;DHT22;1062;52.538;13.400;2024-01-30T06:26:21;2.90;99.90
2112;DHT22;1062;52.538;13.400;2024-01-30T06:28:47;2.90;99.90
2112;DHT22;1062;52.538;13.400;2024-01-30T06:31:12;2.90;99.90
2112;DHT22;1062;52.538;13.400;2024-01-30T06:33:38;3.10;99.90
2112;DHT22;1062;52.538;13.400;2024-01-30T06:36:04;3.10;99.90
2112;DHT22;1062;52.538;13.400;2024-01-30T06:38:29;3.10;99.90
2112;DHT22;1062;52.538;13.400;2024-01-30T06:40:55;3.20;99.90
2112;DHT22;1062;52.538;13.400;2024-01-30T06:43:21;3.10;99.90
2112;DHT22;1062;52.538;13.400;2024-01-30T06:45:47;3.30;99.90
2112;DHT22;1062;52.538;13.400;2024-01-30T06:48:12;3.40;99.90
2112;DHT22;1062;52.538;13.400;2024-01-30T06:50:38;3.30;99.90
2112;DHT22;1062;52.538;13.400;2024-01-30T06:53:04;3.40;99.90
2112;DHT22;1062;52.538;13.400;2024-01-30T06:55:29;3.30;99.90
2112;DHT22;1062;52.538;13.400;2024-01-30T06:57:55;3.30;99.90
2112;DHT22;1062;52.538;13.400;2024-01-30T07:00:20;3.50;99.90
2112;DHT22;1062;52.538;13.400;2024-01-30T07:02:46;3.40;99.90
2112;DHT22;1062;52.538;13.400;2024-01-30T07:05:12;3.50;99.90
2112;DHT22;1062;52.538;13.400;2024-01-30T07:07:38;3.40;99.90
2112;DHT22;1062;52.538;13.400;2024-01-30T07:10:04;3.30;99.90
2112;DHT22;1062;52.538;13.400;2024-01-30T07:12:30;3.30;99.90
2112;DHT22;1062;52.538;13.400;2024-01-30T07:14:56;3.30;99.90
2112;DHT22;1062;52.538;13.400;2024-01-30T07:17:22;3.30;99.90
2112;DHT22;1062;52.538;13.400;2024-01-30T07:19:47;3.40;99.90
2112;DHT22;1062;52.538;13.400;2024-01-30T07:22:13;3.40;99.90
2112;DHT22;1062;52.538;13.400;2024-01-30T07:24:42;3.50;99.90
2112;DHT22;1062;52.538;13.400;2024-01-30T07:27:10;3.50;99.90
2112;DHT22;1062;52.538;13.400;2024-01-30T07:29:35;3.50;99.90
2112;DHT22;1062;52.538;13.400;2024-01-30T07:32:01;3.60;99.90
2112;DHT22;1062;52.538;13.400;2024-01-30T07:34:26;3.60;99.90
2112;DHT22;1062;52.538;13.400;2024-01-30T07:36:52;3.70;99.90
2112;DHT22;1062;52.538;13.400;2024-01-30T07:39:18;3.70;99.90
2112;DHT22;1062;52.538;13.400;2024-01-30T07:41:44;3.80;99.90
2112;DHT22;1062;52.538;13.400;2024-01-30T07:44:09;3.90;99.90
2112;DHT22;1062;52.538;13.400;2024-01-30T07:46:35;3.90;99.90
2112;DHT22;1062;52.538;13.400;2024-01-30T07:49:00;4.00;99.90
2112;DHT22;1062;52.538;13.400;2024-01-30T07:51:27;4.10;99.90
2112;DHT22;1062;52.538;13.400;2024-01-30T07:53:54;4.20;99.90
2112;DHT22;1062;52.538;13.400;2024-01-30T08:03:07;4.40;99.90
2112;DHT22;1062;52.538;13.400;2024-01-30T08:05:32;4.40;99.90
2112;DHT22;1062;52.538;13.400;2024-01-30T08:07:58;4.40;99.90
2112;DHT22;1062;52.538;13.400;2024-01-30T08:10:23;4.40;99.90
2112;DHT22;1062;52.538;13.400;2024-01-30T08:12:49;4.60;99.90
2112;DHT22;1062;52.538;13.400;2024-01-30T08:15:14;4.60;99.90
2112;DHT22;1062;52.538;13.400;2024-01-30T08:17:40;4.60;99.90
2112;DHT22;1062;52.538;13.400;2024-01-30T08:20:06;4.70;99.90
2112;DHT22;1062;52.538;13.400;2024-01-30T08:22:33;4.70;99.90
2112;DHT22;1062;52.538;13.400;2024-01-30T08:24:59;4.70;99.90
2112;DHT22;1062;52.538;13.400;2024-01-30T08:27:24;4.90;99.90
2112;DHT22;1062;52.538;13.400;2024-01-30T08:29:50;4.90;99.90
2112;DHT22;1062;52.538;13.400;2024-01-30T08:32:16;4.80;99.90
2112;DHT22;1062;52.538;13.400;2024-01-30T08:34:41;4.90;99.90
2112;DHT22;1062;52.538;13.400;2024-01-30T08:37:07;4.90;99.90
2112;DHT22;1062;52.538;13.400;2024-01-30T08:39:32;5.00;99.90
2112;DHT22;1062;52.538;13.400;2024-01-30T08:41:58;5.00;99.90
2112;DHT22;1062;52.538;13.400;2024-01-30T08:44:23;5.00;99.90
2112;DHT22;1062;52.538;13.400;2024-01-30T08:46:49;5.00;99.90
2112;DHT22;1062;52.538;13.400;2024-01-30T08:49:16;5.00;99.90
2112;DHT22;1062;52.538;13.400;2024-01-30T08:51:42;5.10;99.90
2112;DHT22;1062;52.538;13.400;2024-01-30T08:54:07;5.30;99.90
2112;DHT22;1062;52.538;13.400;2024-01-30T08:56:33;5.40;99.90
2112;DHT22;1062;52.538;13.400;2024-01-30T08:58:59;5.60;99.90
2112;DHT22;1062;52.538;13.400;2024-01-30T09:01:25;5.70;99.90
2112;DHT22;1062;52.538;13.400;2024-01-30T09:03:51;6.00;99.90
2112;DHT22;1062;52.538;13.400;2024-01-30T09:06:17;6.10;99.90
2112;DHT22;1062;52.538;13.400;2024-01-30T09:08:43;6.20;99.90
2112;DHT22;1062;52.538;13.400;2024-01-30T09:11:12;6.30;99.90
2112;DHT22;1062;52.538;13.400;2024-01-30T09:13:38;6.40;99.90
2112;DHT22;1062;52.538;13.400;2024-01-30T09:16:04;6.40;99.90
2112;DHT22;1062;52.538;13.400;2024-01-30T09:18:30;6.10;99.90
2112;DHT22;1062;52.538;13.400;2024-01-30T09:20:56;6.20;99.90
2112;DHT22;1062;52.538;13.400;2024-01-30T09:23:21;6.40;99.90
2112;DHT22;1062;52.538;13.400;2024-01-30T09:25:47;6.40;99.90
2112;DHT22;1062;52.538;13.400;2024-01-30T09:28:13;6.40;99.90
2112;DHT22;1062;52.538;13.400;2024-01-30T09:30:39;6.60;99.90
2112;DHT22;1062;52.538;13.400;2024-01-30T09:33:05;6.50;99.90
2112;DHT22;1062;52.538;13.400;2024-01-30T09:35:31;6.50;99.90
2112;DHT22;1062;52.538;13.400;2024-01-30T09:37:58;6.60;99.90
2112;DHT22;1062;52.538;13.400;2024-01-30T09:40:24;6.70;99.90
2112;DHT22;1062;52.538;13.400;2024-01-30T09:42:51;6.60;99.90
2112;DHT22;1062;52.538;13.400;2024-01-30T09:45:23;6.50;99.90
2112;DHT22;1062;52.538;13.400;2024-01-30T09:47:49;6.50;99.90
2112;DHT22;1062;52.538;13.400;2024-01-30T09:50:16;6.60;99.90
2112;DHT22;1062;52.538;13.400;2024-01-30T09:52:46;6.60;99.90
2112;DHT22;1062;52.538;13.400;2024-01-30T09:55:11;6.60;99.90
2112;DHT22;1062;52.538;13.400;2024-01-30T09:57:37;6.70;99.90
2112;DHT22;1062;52.538;13.400;2024-01-30T10:00:04;6.80;99.90
2112;DHT22;1062;52.538;13.400;2024-01-30T10:02:31;6.70;99.90
2112;DHT22;1062;52.538;13.400;2024-01-30T10:04:57;7.00;99.90
2112;DHT22;1062;52.538;13.400;2024-01-30T10:07:23;7.00;99.90
2112;DHT22;1062;52.538;13.400;2024-01-30T10:09:48;7.10;99.90
2112;DHT22;1062;52.538;13.400;2024-01-30T10:12:15;7.10;99.90
2112;DHT22;1062;52.538;13.400;2024-01-30T10:14:42;7.30;99.90
2112;DHT22;1062;52.538;13.400;2024-01-30T10:17:08;7.20;99.90
2112;DHT22;1062;52.538;13.400;2024-01-30T10:19:38;7.20;99.90
2112;DHT22;1062;52.538;13.400;2024-01-30T10:22:04;7.30;99.90
2112;DHT22;1062;52.538;13.400;2024-01-30T10:24:31;7.30;99.90
2112;DHT22;1062;52.538;13.400;2024-01-30T10:26:56;7.40;99.90
2112;DHT22;1062;52.538;13.400;2024-01-30T10:29:22;7.40;99.90
2112;DHT22;1062;52.538;13.400;2024-01-30T10:32:01;7.50;99.90
2112;DHT22;1062;52.538;13.400;2024-01-30T10:34:27;7.30;99.90
2112;DHT22;1062;52.538;13.400;2024-01-30T10:39:29;7.50;99.90
2112;DHT22;1062;52.538;13.400;2024-01-30T10:41:59;7.60;99.90
2112;DHT22;1062;52.538;13.400;2024-01-30T10:44:30;7.40;99.90
2112;DHT22;1062;52.538;13.400;2024-01-30T10:47:06;7.50;99.90
2112;DHT22;1062;52.538;13.400;2024-01-30T10:49:33;7.40;99.90
2112;DHT22;1062;52.538;13.400;2024-01-30T10:51:59;7.50;99.90
2112;DHT22;1062;52.538;13.400;2024-01-30T10:54:26;7.40;99.90
2112;DHT22;1062;52.538;13.400;2024-01-30T10:56:53;7.50;99.90
2112;DHT22;1062;52.538;13.400;2024-01-30T10:59:19;7.50;99.90
2112;DHT22;1062;52.538;13.400;2024-01-30T11:01:46;7.50;99.90
2112;DHT22;1062;52.538;13.400;2024-01-30T11:04:12;7.60;99.90
2112;DHT22;1062;52.538;13.400;2024-01-30T11:06:41;7.50;99.90
2112;DHT22;1062;52.538;13.400;2024-01-30T11:09:11;7.60;99.90
2112;DHT22;1062;52.538;13.400;2024-01-30T11:11:57;7.60;99.90
2112;DHT22;1062;52.538;13.400;2024-01-30T11:14:28;7.60;99.90
2112;DHT22;1062;52.538;13.400;2024-01-30T11:16:58;7.60;99.90
2112;DHT22;1062;52.538;13.400;2024-01-30T11:19:25;7.80;99.90
2112;DHT22;1062;52.538;13.400;2024-01-30T11:21:54;7.70;99.90
2112;DHT22;1062;52.538;13.400;2024-01-30T11:24:21;7.70;99.90
2112;DHT22;1062;52.538;13.400;2024-01-30T11:26:55;7.80;99.90
2112;DHT22;1062;52.538;13.400;2024-01-30T11:29:29;7.90;99.90
2112;DHT22;1062;52.538;13.400;2024-01-30T11:31:58;7.90;99.90
2112;DHT22;1062;52.538;13.400;2024-01-30T11:34:24;7.80;99.90
2112;DHT22;1062;52.538;13.400;2024-01-30T11:36:56;7.90;99.90
2112;DHT22;1062;52.538;13.400;2024-01-30T11:39:29;7.90;99.90
2112;DHT22;1062;52.538;13.400;2024-01-30T11:41:55;8.00;99.90
2112;DHT22;1062;52.538;13.400;2024-01-30T11:44:22;7.90;99.90
2112;DHT22;1062;52.538;13.400;2024-01-30T11:46:52;7.90;99.90
2112;DHT22;1062;52.538;13.400;2024-01-30T11:49:18;8.10;99.90
2112;DHT22;1062;52.538;13.400;2024-01-30T11:51:47;8.10;99.90
2112;DHT22;1062;52.538;13.400;2024-01-30T11:54:15;8.10;99.90
2112;DHT22;1062;52.538;13.400;2024-01-30T11:56:42;8.10;99.90
2112;DHT22;1062;52.538;13.400;2024-01-30T11:59:08;8.30;99.90
2112;DHT22;1062;52.538;13.400;2024-01-30T12:01:34;8.40;99.90
2112;DHT22;1062;52.538;13.400;2024-01-30T12:04:00;8.50;99.90
2112;DHT22;1062;52.538;13.400;2024-01-30T12:06:25;8.50;99.90
2112;DHT22;1062;52.538;13.400;2024-01-30T12:09:02;8.50;99.90
2112;DHT22;1062;52.538;13.400;2024-01-30T12:11:29;8.50;99.90
2112;DHT22;1062;52.538;13.400;2024-01-30T12:13:55;8.70;99.90
2112;DHT22;1062;52.538;13.400;2024-01-30T12:16:21;8.80;99.90
2112;DHT22;1062;52.538;13.400;2024-01-30T12:18:48;8.80;99.90
2112;DHT22;1062;52.538;13.400;2024-01-30T12:21:16;8.80;99.90
2112;DHT22;1062;52.538;13.400;2024-01-30T12:23:42;8.90;99.90
2112;DHT22;1062;52.538;13.400;2024-01-30T12:26:08;8.90;99.90
2112;DHT22;1062;52.538;13.400;2024-01-30T12:28:34;8.90;99.90
2112;DHT22;1062;52.538;13.400;2024-01-30T12:31:03;8.80;99.90
2112;DHT22;1062;52.538;13.400;2024-01-30T12:33:29;8.80;99.90
2112;DHT22;1062;52.538;13.400;2024-01-30T12:35:55;8.90;99.90
2112;DHT22;1062;52.538;13.400;2024-01-30T12:38:21;8.80;99.90
2112;DHT22;1062;52.538;13.400;2024-01-30T12:40:47;8.80;99.90
2112;DHT22;1062;52.538;13.400;2024-01-30T12:43:13;8.90;99.90
2112;DHT22;1062;52.538;13.400;2024-01-30T12:45:40;8.90;99.90
2112;DHT22;1062;52.538;13.400;2024-01-30T12:48:06;9.00;99.90
2112;DHT22;1062;52.538;13.400;2024-01-30T12:50:32;8.80;99.90
2112;DHT22;1062;52.538;13.400;2024-01-30T12:52:57;8.80;99.90
2112;DHT22;1062;52.538;13.400;2024-01-30T12:55:23;8.90;99.90
2112;DHT22;1062;52.538;13.400;2024-01-30T12:57:50;8.90;99.90
2112;DHT22;1062;52.538;13.400;2024-01-30T13:00:16;9.00;99.90
2112;DHT22;1062;52.538;13.400;2024-01-30T13:02:42;9.00;99.90
2112;DHT22;1062;52.538;13.400;2024-01-30T13:05:10;9.00;99.90
2112;DHT22;1062;52.538;13.400;2024-01-30T13:07:36;8.90;99.90
2112;DHT22;1062;52.538;13.400;2024-01-30T13:10:02;8.80;99.90
2112;DHT22;1062;52.538;13.400;2024-01-30T13:12:29;8.90;99.90
2112;DHT22;1062;52.538;13.400;2024-01-30T13:14:55;8.90;99.90
2112;DHT22;1062;52.538;13.400;2024-01-30T13:17:20;8.90;99.90
2112;DHT22;1062;52.538;13.400;2024-01-30T13:19:46;8.90;99.90
2112;DHT22;1062;52.538;13.400;2024-01-30T13:22:15;9.00;99.90
2112;DHT22;1062;52.538;13.400;2024-01-30T13:24:41;9.00;99.90
2112;DHT22;1062;52.538;13.400;2024-01-30T13:27:07;9.00;99.90
2112;DHT22;1062;52.538;13.400;2024-01-30T13:29:32;9.00;99.90
2112;DHT22;1062;52.538;13.400;2024-01-30T13:31:58;8.80;99.90
2112;DHT22;1062;52.538;13.400;2024-01-30T13:34:24;8.70;99.90
2112;DHT22;1062;52.538;13.400;2024-01-30T13:36:50;8.70;99.90
2112;DHT22;1062;52.538;13.400;2024-01-30T13:39:16;8.70;99.90
2112;DHT22;1062;52.538;13.400;2024-01-30T13:41:42;8.60;99.90
2112;DHT22;1062;52.538;13.400;2024-01-30T13:44:07;8.60;99.90
2112;DHT22;1062;52.538;13.400;2024-01-30T13:46:34;8.60;99.90
2112;DHT22;1062;52.538;13.400;2024-01-30T13:49:00;8.70;99.90
2112;DHT22;1062;52.538;13.400;2024-01-30T13:51:25;8.70;99.90
2112;DHT22;1062;52.538;13.400;2024-01-30T13:53:51;8.80;99.90
2112;DHT22;1062;52.538;13.400;2024-01-30T13:56:17;8.70;99.90
2112;DHT22;1062;52.538;13.400;2024-01-30T13:58:42;8.80;99.90
2112;DHT22;1062;52.538;13.400;2024-01-30T14:01:08;8.70;99.90
2112;DHT22;1062;52.538;13.400;2024-01-30T14:03:35;8.70;99.90
2112;DHT22;1062;52.538;13.400;2024-01-30T14:06:00;8.60;99.90
2112;DHT22;1062;52.538;13.400;2024-01-30T14:08:26;8.60;99.90
2112;DHT22;1062;52.538;13.400;2024-01-30T14:10:54;8.60;99.90
2112;DHT22;1062;52.538;13.400;2024-01-30T14:13:20;8.60;99.90
2112;DHT22;1062;52.538;13.400;2024-01-30T14:15:46;8.60;99.90
2112;DHT22;1062;52.538;13.400;2024-01-30T14:18:12;8.60;99.90
2112;DHT22;1062;52.538;13.400;2024-01-30T14:20:37;8.70;99.90
2112;DHT22;1062;52.538;13.400;2024-01-30T14:23:03;8.70;99.90
2112;DHT22;1062;52.538;13.400;2024-01-30T14:25:29;8.70;99.90
2112;DHT22;1062;52.538;13.400;2024-01-30T14:27:54;8.60;99.90
2112;DHT22;1062;52.538;13.400;2024-01-30T14:30:20;8.60;99.90
2112;DHT22;1062;52.538;13.400;2024-01-30T14:32:45;8.70;99.90
2112;DHT22;1062;52.538;13.400;2024-01-30T14:35:12;8.70;99.90
2112;DHT22;1062;52.538;13.400;2024-01-30T14:37:38;8.70;99.90
2112;DHT22;1062;52.538;13.400;2024-01-30T14:40:04;8.60;99.90
2112;DHT22;1062;52.538;13.400;2024-01-30T14:42:32;8.60;99.90
2112;DHT22;1062;52.538;13.400;2024-01-30T14:44:58;8.70;99.90
2112;DHT22;1062;52.538;13.400;2024-01-30T14:47:24;8.70;99.90
2112;DHT22;1062;52.538;13.400;2024-01-30T14:49:51;8.60;99.90
2112;DHT22;1062;52.538;13.400;2024-01-30T14:52:17;8.60;99.90
2112;DHT22;1062;52.538;13.400;2024-01-30T14:54:42;8.60;99.90
2112;DHT22;1062;52.538;13.400;2024-01-30T14:57:08;8.60;99.90
2112;DHT22;1062;52.538;13.400;2024-01-30T14:59:34;8.50;99.90
2112;DHT22;1062;52.538;13.400;2024-01-30T15:02:00;8.60;99.90
2112;DHT22;1062;52.538;13.400;2024-01-30T15:04:26;8.50;99.90
2112;DHT22;1062;52.538;13.400;2024-01-30T15:06:52;8.50;99.90
2112;DHT22;1062;52.538;13.400;2024-01-30T15:09:17;8.50;99.90
2112;DHT22;1062;52.538;13.400;2024-01-30T15:11:44;8.50;99.90
2112;DHT22;1062;52.538;13.400;2024-01-30T15:14:10;8.40;99.90
2112;DHT22;1062;52.538;13.400;2024-01-30T15:16:36;8.40;99.90
2112;DHT22;1062;52.538;13.400;2024-01-30T15:19:02;8.40;99.90
2112;DHT22;1062;52.538;13.400;2024-01-30T15:21:28;8.40;99.90
2112;DHT22;1062;52.538;13.400;2024-01-30T15:23:54;8.30;99.90
2112;DHT22;1062;52.538;13.400;2024-01-30T15:26:20;8.30;99.90
2112;DHT22;1062;52.538;13.400;2024-01-30T15:28:46;8.30;99.90
2112;DHT22;1062;52.538;13.400;2024-01-30T15:31:11;8.30;99.90
2112;DHT22;1062;52.538;13.400;2024-01-30T15:33:37;8.30;99.90
2112;DHT22;1062;52.538;13.400;2024-01-30T15:36:03;8.30;99.90
2112;DHT22;1062;52.538;13.400;2024-01-30T15:38:29;8.20;99.90
2112;DHT22;1062;52.538;13.400;2024-01-30T15:40:55;8.20;99.90
2112;DHT22;1062;52.538;13.400;2024-01-30T15:43:21;8.10;99.90
2112;DHT22;1062;52.538;13.400;2024-01-30T15:45:48;8.20;99.90
2112;DHT22;1062;52.538;13.400;2024-01-30T15:48:13;8.20;99.90
2112;DHT22;1062;52.538;13.400;2024-01-30T15:50:39;8.10;99.90
2112;DHT22;1062;52.538;13.400;2024-01-30T15:53:05;8.10;99.90
2112;DHT22;1062;52.538;13.400;2024-01-30T15:55:31;8.10;99.90
2112;DHT22;1062;52.538;13.400;2024-01-30T15:57:56;8.00;99.90
2112;DHT22;1062;52.538;13.400;2024-01-30T16:00:22;8.00;99.90
2112;DHT22;1062;52.538;13.400;2024-01-30T16:02:47;8.00;99.90
2112;DHT22;1062;52.538;13.400;2024-01-30T16:05:13;8.00;99.90